Time;durP1;ratioP1;P1;durP2;ratioP2;P2;SDS_P1;SDS_P2;PMS_P1;PMS_P2;Temp;Humidity;BMP_temperature;BMP_pressure;BME280_temperature;BME280_humidity;BME280_pressure;Samples;Min_cycle;Max_cycle;Signal;HPM_P1;HPM_P2
2024/01/07 00:00:33;;;;;;;;;2.50;2.50;;;;;21.41;46.89;101218.15;112186;1247;20738;-30
2024/01/07 00:03:20;;;;;;;;;4.00;2.00;;;;;21.42;46.83;101221.86;112163;1246;21465;-31
2024/01/07 00:05:48;;;;;;;;;3.33;2.67;;;;;21.42;46.58;101225.78;112119;1261;18532;-31
2024/01/07 00:08:15;;;;;;;;;4.00;3.00;;;;;21.42;46.77;101233.52;112144;1246;20789;-31
2024/01/07 00:10:42;;;;;;;;;3.00;3.00;;;;;21.43;46.74;101231.02;112167;1247;19703;-31
2024/01/07 00:13:09;;;;;;;;;4.00;3.00;;;;;21.41;46.53;101229.92;112182;1261;18761;-31
2024/01/07 00:15:37;;;;;;;;;5.00;5.00;;;;;21.41;46.68;101231.27;111895;1247;318711;-31
2024/01/07 00:18:04;;;;;;;;;2.00;2.00;;;;;21.42;46.62;101234.88;112223;1246;19622;-30
2024/01/07 00:20:31;;;;;;;;;2.00;2.00;;;;;21.42;46.55;101236.46;112173;1254;20012;-31
2024/01/07 00:22:59;;;;;;;;;4.00;4.00;;;;;21.42;46.32;101235.80;112264;1262;20692;-31
2024/01/07 00:25:26;;;;;;;;;2.00;1.00;;;;;21.42;46.50;101237.29;112111;1262;19522;-30
2024/01/07 00:27:55;;;;;;;;;3.50;2.00;;;;;21.43;46.37;101238.70;112200;1261;18637;-31
2024/01/07 00:30:22;;;;;;;;;5.00;4.00;;;;;21.44;46.23;101238.38;112140;1247;20771;-31
2024/01/07 00:32:51;;;;;;;;;3.00;3.00;;;;;21.43;46.41;101239.47;112210;1254;19569;-31
2024/01/07 00:35:18;;;;;;;;;3.00;3.00;;;;;21.42;46.34;101239.19;112140;1246;20028;-31
2024/01/07 00:37:45;;;;;;;;;2.00;2.00;;;;;21.42;46.25;101241.75;112179;1246;20778;-30
2024/01/07 00:40:13;;;;;;;;;4.00;4.00;;;;;21.42;46.14;101241.37;112142;1261;19640;-30
2024/01/07 00:42:40;;;;;;;;;2.00;2.00;;;;;21.43;46.00;101242.02;112218;1261;18628;-31
2024/01/07 00:45:08;;;;;;;;;2.00;2.00;;;;;21.46;46.06;101246.80;112184;1246;20832;-31
2024/01/07 00:47:36;;;;;;;;;2.00;2.00;;;;;21.43;45.96;101246.45;112181;1246;19748;-31
2024/01/07 00:50:03;;;;;;;;;4.00;4.00;;;;;21.41;45.93;101249.21;112147;1261;18637;-30
2024/01/07 00:52:30;;;;;;;;;2.00;2.00;;;;;21.41;45.71;101247.63;112197;1261;19275;-31
2024/01/07 00:54:57;;;;;;;;;3.00;2.00;;;;;21.39;46.03;101246.64;112180;1257;19473;-31
2024/01/07 00:57:25;;;;;;;;;3.00;2.00;;;;;21.39;45.80;101248.87;112199;1246;20148;-31
2024/01/07 00:59:52;;;;;;;;;2.00;2.00;;;;;21.38;45.89;101253.71;112176;1246;22165;-31
2024/01/07 01:02:19;;;;;;;;;4.50;4.00;;;;;21.37;45.73;101252.95;112209;1247;19517;-31
2024/01/07 01:04:47;;;;;;;;;2.00;2.00;;;;;21.38;45.79;101257.42;112143;1256;20009;-30
2024/01/07 01:07:14;;;;;;;;;2.00;2.00;;;;;21.37;45.68;101257.70;112263;1261;20602;-30
2024/01/07 01:09:41;;;;;;;;;4.00;4.00;;;;;21.37;45.89;101260.14;112147;1247;19622;-30
2024/01/07 01:12:09;;;;;;;;;2.00;2.00;;;;;21.36;45.55;101257.68;112153;1246;18657;-31
2024/01/07 01:14:36;;;;;;;;;2.00;2.00;;;;;21.37;45.53;101261.56;112195;1256;19353;-31
2024/01/07 01:17:03;;;;;;;;;2.00;2.00;;;;;21.36;45.26;101260.58;112137;1245;19119;-30
2024/01/07 01:19:31;;;;;;;;;2.00;2.00;;;;;21.37;45.51;101258.23;112169;1246;18529;-30
2024/01/07 01:21:58;;;;;;;;;2.00;1.67;;;;;21.38;45.35;101258.23;112155;1247;20787;-31
2024/01/07 01:24:25;;;;;;;;;2.00;2.00;;;;;21.37;45.46;101256.33;112198;1246;19534;-30
2024/01/07 01:26:52;;;;;;;;;2.00;2.00;;;;;21.36;45.18;101262.48;112232;1246;20292;-30
2024/01/07 01:29:20;;;;;;;;;2.00;2.00;;;;;21.36;45.25;101262.92;112222;1261;19320;-30
2024/01/07 01:31:47;;;;;;;;;2.00;2.00;;;;;21.37;45.16;101265.54;112222;1248;20198;-31
2024/01/07 01:34:14;;;;;;;;;1.67;1.67;;;;;21.37;45.28;101268.64;112198;1260;18610;-30
2024/01/07 01:36:42;;;;;;;;;2.00;2.00;;;;;21.37;45.29;101267.17;112166;1248;20778;-30
2024/01/07 01:39:09;;;;;;;;;2.00;2.00;;;;;21.37;45.00;101276.33;112176;1260;18216;-30
2024/01/07 01:41:36;;;;;;;;;2.00;2.00;;;;;21.37;45.13;101275.57;112215;1260;18626;-31
2024/01/07 01:44:04;;;;;;;;;2.00;2.00;;;;;21.37;45.04;101275.61;112200;1254;20732;-30
2024/01/07 01:46:31;;;;;;;;;4.00;2.00;;;;;21.36;44.69;101280.79;112181;1260;18201;-31
2024/01/07 01:48:58;;;;;;;;;2.00;2.00;;;;;21.36;44.80;101283.17;112231;1244;20138;-31
2024/01/07 01:51:25;;;;;;;;;2.00;2.00;;;;;21.35;44.89;101279.91;112227;1244;20812;-30
2024/01/07 01:53:53;;;;;;;;;4.00;2.00;;;;;21.35;44.98;101284.77;112279;1252;19607;-31
2024/01/07 01:56:20;;;;;;;;;2.00;2.00;;;;;21.36;44.72;101283.63;112161;1246;20133;-30
2024/01/07 01:58:47;;;;;;;;;2.00;2.00;;;;;21.34;44.84;101280.51;112373;1244;20313;-31
2024/01/07 02:01:15;;;;;;;;;2.00;2.00;;;;;21.34;44.92;101281.81;112220;1260;18245;-30
2024/01/07 02:03:42;;;;;;;;;2.00;2.00;;;;;21.33;44.62;101276.63;112245;1244;20100;-30
2024/01/07 02:06:09;;;;;;;;;2.00;2.00;;;;;21.33;44.72;101276.25;112219;1252;20649;-30
2024/01/07 02:08:37;;;;;;;;;3.67;3.67;;;;;21.34;44.72;101275.86;112183;1244;19617;-30
2024/01/07 02:11:04;;;;;;;;;2.00;2.00;;;;;21.34;44.35;101274.52;112197;1244;21236;-30
2024/01/07 02:13:31;;;;;;;;;4.00;4.00;;;;;21.33;44.42;101274.66;112197;1260;19509;-31
2024/01/07 02:15:58;;;;;;;;;2.00;2.00;;;;;21.34;44.77;101276.04;112256;1260;18218;-30
2024/01/07 02:18:26;;;;;;;;;2.00;2.00;;;;;21.34;44.44;101277.34;112144;1247;21232;-31
2024/01/07 02:20:53;;;;;;;;;2.00;2.00;;;;;21.34;44.44;101283.13;112269;1246;20778;-31
2024/01/07 02:23:20;;;;;;;;;3.00;2.00;;;;;21.33;44.44;101281.21;112179;1244;20998;-31
2024/01/07 02:25:48;;;;;;;;;1.00;1.00;;;;;21.33;44.52;101278.91;112317;1260;18723;-30
2024/01/07 02:28:15;;;;;;;;;2.00;1.50;;;;;21.33;44.14;101275.05;112176;1253;20872;-30
2024/01/07 02:30:42;;;;;;;;;2.00;2.00;;;;;21.33;44.52;101275.32;112277;1254;18218;-31
2024/01/07 02:33:10;;;;;;;;;1.00;1.00;;;;;21.33;44.31;101281.38;112143;1260;19871;-30
2024/01/07 02:35:37;;;;;;;;;2.00;2.00;;;;;21.33;44.13;101280.12;112151;1247;20793;-31
2024/01/07 02:38:04;;;;;;;;;2.00;2.00;;;;;21.32;44.11;101282.34;112217;1244;19633;-31
2024/01/07 02:40:31;;;;;;;;;2.00;2.00;;;;;21.33;44.33;101282.52;112186;1244;21157;-31
2024/01/07 02:42:59;;;;;;;;;2.00;2.00;;;;;21.33;44.19;101281.86;112246;1253;20671;-31
2024/01/07 02:45:26;;;;;;;;;2.50;2.00;;;;;21.32;44.04;101281.58;112202;1246;20830;-31
2024/01/07 02:47:53;;;;;;;;;2.00;2.00;;;;;21.32;44.12;101276.77;112294;1260;18716;-30
2024/01/07 02:50:21;;;;;;;;;2.00;2.00;;;;;21.31;44.05;101276.29;112222;1244;19361;-31
2024/01/07 02:52:48;;;;;;;;;2.00;2.00;;;;;21.32;44.03;101276.40;112319;1253;20662;-30
2024/01/07 02:55:15;;;;;;;;;2.00;2.00;;;;;21.31;44.03;101281.69;112168;1244;20028;-31
2024/01/07 02:57:43;;;;;;;;;2.00;2.00;;;;;21.31;44.04;101283.38;112172;1244;20825;-31
2024/01/07 03:00:10;;;;;;;;;2.00;2.00;;;;;21.31;43.70;101276.44;112206;1260;18209;-30
2024/01/07 03:02:37;;;;;;;;;4.00;4.00;;;;;21.31;44.01;101275.58;112168;1247;20121;-31
2024/01/07 03:05:05;;;;;;;;;2.00;2.00;;;;;21.30;44.01;101273.77;112189;1246;22051;-31
2024/01/07 03:07:32;;;;;;;;;2.00;2.00;;;;;21.30;43.95;101278.52;112144;1244;18500;-31
2024/01/07 03:09:59;;;;;;;;;2.00;1.00;;;;;21.30;43.90;101279.14;112304;1244;19074;-31
2024/01/07 03:12:26;;;;;;;;;2.00;2.00;;;;;21.29;43.94;101280.09;112166;1260;19494;-31
2024/01/07 03:14:54;;;;;;;;;;;;;;;21.28;43.89;101278.88;112295;1257;18503;-30
2024/01/07 03:17:22;;;;;;;;;2.00;2.00;;;;;21.28;43.94;101277.90;112172;1260;22511;-31
2024/01/07 03:19:49;;;;;;;;;2.00;2.00;;;;;21.29;43.74;101274.86;112260;1245;19236;-30
2024/01/07 03:22:17;;;;;;;;;2.00;2.00;;;;;21.29;43.46;101278.23;112182;1260;18675;-30
2024/01/07 03:24:44;;;;;;;;;2.00;2.00;;;;;21.29;43.87;101280.19;112152;1260;20811;-31
2024/01/07 03:27:11;;;;;;;;;1.00;1.00;;;;;21.29;43.76;101282.70;112151;1244;20983;-31
2024/01/07 03:29:39;;;;;;;;;2.00;2.00;;;;;21.29;43.46;101283.84;112201;1260;18177;-30
2024/01/07 03:32:06;;;;;;;;;2.00;2.00;;;;;21.31;43.45;101285.65;112121;1253;18426;-30
2024/01/07 03:34:33;;;;;;;;;2.00;2.00;;;;;21.30;43.53;101283.85;112229;1260;19586;-31
2024/01/07 03:37:00;;;;;;;;;2.00;2.00;;;;;21.32;43.40;101284.41;112183;1244;20917;-31
2024/01/07 03:39:28;;;;;;;;;2.00;2.00;;;;;21.31;43.37;101284.46;112278;1260;19990;-30
2024/01/07 03:41:55;;;;;;;;;2.00;2.00;;;;;21.32;43.33;101284.90;112203;1254;20728;-31
2024/01/07 03:44:22;;;;;;;;;1.50;1.50;;;;;21.33;43.46;101287.48;112327;1244;20812;-31
2024/01/07 03:46:50;;;;;;;;;5.50;4.00;;;;;21.32;43.56;101286.54;112196;1244;19873;-31
2024/01/07 03:49:18;;;;;;;;;2.00;2.00;;;;;21.32;43.45;101290.19;112331;1244;20765;-31
2024/01/07 03:51:45;;;;;;;;;2.00;2.00;;;;;21.33;43.35;101297.56;112165;1244;20814;-31
2024/01/07 03:54:13;;;;;;;;;3.00;2.00;;;;;21.32;43.41;101299.67;112372;1244;20191;-31
2024/01/07 03:56:40;;;;;;;;;2.00;2.00;;;;;21.33;43.49;101300.50;112190;1260;19322;-31
2024/01/07 03:59:08;;;;;;;;;4.00;2.00;;;;;21.33;43.20;101309.21;112283;1244;19613;-31
2024/01/07 04:01:35;;;;;;;;;1.00;1.00;;;;;21.33;43.32;101306.70;112198;1260;18619;-31
2024/01/07 04:04:02;;;;;;;;;2.00;2.00;;;;;21.32;43.27;101304.09;112401;1244;20716;-31
2024/01/07 04:06:30;;;;;;;;;2.00;2.00;;;;;21.32;43.34;101307.95;112244;1247;19565;-31
2024/01/07 04:08:57;;;;;;;;;2.00;2.00;;;;;21.33;43.41;101316.73;112279;1244;19929;-31
2024/01/07 04:11:24;;;;;;;;;1.00;1.00;;;;;21.32;43.27;101325.77;112289;1260;19385;-31
2024/01/07 04:13:52;;;;;;;;;2.00;2.00;;;;;21.32;43.41;101330.79;112179;1260;18225;-30
2024/01/07 04:16:19;;;;;;;;;2.00;2.00;;;;;21.33;43.17;101330.37;112320;1244;21222;-30
2024/01/07 04:18:46;;;;;;;;;2.00;2.00;;;;;21.31;43.40;101333.30;112151;1260;19351;-31
2024/01/07 04:21:14;;;;;;;;;2.00;2.00;;;;;21.32;43.15;101331.50;112357;1244;18230;-30
2024/01/07 04:23:41;;;;;;;;;1.50;1.50;;;;;21.33;43.22;101328.34;112167;1260;18648;-30
2024/01/07 04:26:08;;;;;;;;;2.00;2.00;;;;;21.32;43.07;101329.48;112388;1260;20656;-30
2024/01/07 04:28:35;;;;;;;;;2.00;2.00;;;;;21.32;43.38;101329.42;112209;1244;18179;-30
2024/01/07 04:31:03;;;;;;;;;1.00;1.00;;;;;21.32;43.28;101327.41;112417;1260;18638;-30
2024/01/07 04:33:30;;;;;;;;;4.00;3.00;;;;;21.31;43.25;101327.35;112272;1244;20672;-30
2024/01/07 04:35:59;;;;;;;;;4.00;4.00;;;;;21.32;43.22;101331.66;112184;1248;19636;-31
2024/01/07 04:38:26;;;;;;;;;2.00;2.00;;;;;21.31;43.26;101335.26;112173;1246;20045;-31
2024/01/07 04:40:53;;;;;;;;;2.00;2.00;;;;;21.31;43.08;101340.43;112373;1244;19536;-30
2024/01/07 04:43:21;;;;;;;;;2.00;2.00;;;;;21.31;43.06;101340.98;112179;1244;20837;-30
2024/01/07 04:45:48;;;;;;;;;2.00;2.00;;;;;21.32;43.12;101345.61;112370;1247;20057;-30
2024/01/07 04:48:15;;;;;;;;;1.50;1.50;;;;;21.32;43.01;101343.38;112237;1244;21236;-31
2024/01/07 04:50:43;;;;;;;;;2.00;2.00;;;;;21.31;43.04;101348.06;112158;1244;20802;-30
2024/01/07 04:53:10;;;;;;;;;4.00;2.00;;;;;21.30;43.15;101342.84;112256;1260;20625;-30
2024/01/07 04:55:37;;;;;;;;;3.50;2.50;;;;;21.30;43.01;101350.45;112139;1247;19729;-30
2024/01/07 04:58:04;;;;;;;;;2.00;2.00;;;;;21.30;42.82;101347.18;112300;1246;19627;-31
2024/01/07 05:00:32;;;;;;;;;1.33;1.33;;;;;21.31;42.93;101352.48;112168;1244;20027;-30
2024/01/07 05:02:59;;;;;;;;;2.00;2.00;;;;;21.31;42.85;101350.83;112323;1260;21398;-30
2024/01/07 05:05:26;;;;;;;;;2.00;2.00;;;;;21.30;42.89;101356.12;112201;1254;18246;-31
2024/01/07 05:07:54;;;;;;;;;4.00;2.33;;;;;21.28;42.97;101361.83;112197;1244;18817;-31
2024/01/07 05:10:21;;;;;;;;;1.00;1.00;;;;;21.29;43.05;101363.03;112223;1244;19647;-30
2024/01/07 05:12:48;;;;;;;;;4.00;2.00;;;;;21.30;42.99;101359.50;112194;1244;19930;-31
2024/01/07 05:15:16;;;;;;;;;2.00;2.00;;;;;21.29;43.14;101355.84;112195;1253;20744;-33
2024/01/07 05:17:43;;;;;;;;;2.00;2.00;;;;;21.30;42.67;101359.58;112199;1260;21319;-31
2024/01/07 05:20:10;;;;;;;;;2.00;2.00;;;;;21.29;42.97;101358.91;112213;1244;17769;-31
2024/01/07 05:22:38;;;;;;;;;4.50;3.00;;;;;21.31;42.86;101363.59;112206;1244;17559;-31
2024/01/07 05:25:05;;;;;;;;;2.00;2.00;;;;;21.31;43.01;101360.48;112267;1244;20756;-30
2024/01/07 05:27:33;;;;;;;;;4.00;3.00;;;;;21.30;42.84;101360.15;112232;1244;20777;-30
2024/01/07 05:30:00;;;;;;;;;2.00;2.00;;;;;21.30;42.83;101365.61;112241;1244;19396;-31
2024/01/07 05:32:27;;;;;;;;;2.00;2.00;;;;;21.29;42.86;101378.54;112164;1253;21304;-31
2024/01/07 05:34:55;;;;;;;;;2.00;2.00;;;;;21.28;42.88;101378.24;112166;1244;18479;-31
2024/01/07 05:37:22;;;;;;;;;2.00;2.00;;;;;21.29;42.95;101381.63;112134;1246;20112;-31
2024/01/07 05:39:49;;;;;;;;;2.00;2.00;;;;;21.30;42.90;101384.52;112206;1260;18432;-31
2024/01/07 05:42:16;;;;;;;;;2.00;2.00;;;;;21.30;42.94;101381.41;112193;1244;18553;-30
2024/01/07 05:44:44;;;;;;;;;2.00;2.00;;;;;21.31;43.00;101375.61;112270;1260;21656;-30
2024/01/07 05:47:11;;;;;;;;;2.00;2.00;;;;;21.29;42.76;101377.37;112188;1246;19518;-31
2024/01/07 05:49:38;;;;;;;;;2.00;2.00;;;;;21.29;42.90;101392.30;112171;1244;19338;-31
2024/01/07 05:52:06;;;;;;;;;3.50;2.00;;;;;21.28;42.79;101391.91;112160;1252;18754;-31
2024/01/07 05:54:33;;;;;;;;;2.00;2.00;;;;;21.30;43.07;101392.02;112174;1260;20841;-31
2024/01/07 05:57:00;;;;;;;;;3.50;3.50;;;;;21.28;42.76;101390.98;112226;1244;18700;-31
2024/01/07 05:59:27;;;;;;;;;2.00;2.00;;;;;21.26;42.79;101390.69;112224;1260;21949;-30
2024/01/07 06:01:55;;;;;;;;;2.00;2.00;;;;;21.27;42.82;101392.88;112226;1244;22294;-30
2024/01/07 06:04:22;;;;;;;;;2.00;2.00;;;;;21.27;42.81;101391.25;112229;1244;19619;-30
2024/01/07 06:06:50;;;;;;;;;2.00;2.00;;;;;21.27;42.86;101387.27;112263;1260;20062;-30
2024/01/07 06:09:17;;;;;;;;;2.00;2.00;;;;;21.26;42.72;101390.30;112155;1260;19378;-30
2024/01/07 06:11:44;;;;;;;;;2.00;2.00;;;;;21.27;42.65;101390.96;112314;1260;19585;-31
2024/01/07 06:14:11;;;;;;;;;4.00;2.00;;;;;21.27;42.75;101390.41;112171;1244;19920;-31
2024/01/07 06:16:39;;;;;;;;;2.00;2.00;;;;;21.26;42.67;101394.66;112170;1260;20973;-30
2024/01/07 06:19:06;;;;;;;;;1.00;1.00;;;;;21.26;42.76;101394.50;112182;1253;20775;-31
2024/01/07 06:21:34;;;;;;;;;4.00;4.00;;;;;21.27;42.83;101398.05;112172;1248;20132;-31
2024/01/07 06:24:01;;;;;;;;;1.00;1.00;;;;;21.27;42.60;101397.73;112199;1247;20735;-31
2024/01/07 06:26:28;;;;;;;;;1.50;1.50;;;;;21.28;42.49;101401.71;112179;1244;19644;-31
2024/01/07 06:28:56;;;;;;;;;2.00;2.00;;;;;21.28;42.40;101408.85;112205;1244;19997;-31
2024/01/07 06:31:23;;;;;;;;;2.00;2.00;;;;;21.28;42.62;101405.38;112248;1247;20734;-31
2024/01/07 06:33:50;;;;;;;;;2.00;2.00;;;;;21.30;42.67;101405.98;112234;1260;19764;-31
2024/01/07 06:36:18;;;;;;;;;2.00;2.00;;;;;21.28;42.67;101409.19;112154;1246;19156;-30
2024/01/07 06:38:45;;;;;;;;;4.00;2.00;;;;;21.27;42.56;101409.98;112254;1260;19389;-30
2024/01/07 06:41:12;;;;;;;;;1.00;1.00;;;;;21.27;42.59;101410.75;112191;1247;19638;-31
2024/01/07 06:43:40;;;;;;;;;2.00;2.00;;;;;21.27;42.58;101413.96;112291;1256;20195;-31
2024/01/07 06:46:07;;;;;;;;;1.50;1.00;;;;;21.27;42.78;101414.02;112168;1260;21877;-30
2024/01/07 06:48:34;;;;;;;;;4.00;4.00;;;;;21.27;42.47;101415.05;112132;1260;18193;-30
2024/01/07 06:51:02;;;;;;;;;2.00;2.00;;;;;21.28;42.74;101416.91;112153;1254;19929;-31
2024/01/07 06:53:29;;;;;;;;;2.00;2.00;;;;;21.28;42.50;101425.54;112235;1244;20798;-31
2024/01/07 06:55:56;;;;;;;;;4.00;4.00;;;;;21.28;42.64;101430.93;112178;1260;19445;-31
2024/01/07 06:58:24;;;;;;;;;2.00;2.00;;;;;21.27;42.58;101435.23;112157;1260;18683;-30
2024/01/07 07:00:51;;;;;;;;;2.00;2.00;;;;;21.27;42.70;101435.44;112205;1244;20954;-30
2024/01/07 07:03:19;;;;;;;;;1.50;1.50;;;;;21.27;42.73;101441.05;112181;1260;18219;-31
2024/01/07 07:05:46;;;;;;;;;2.00;2.00;;;;;21.30;42.56;101445.12;112193;1247;19960;-31
2024/01/07 07:08:13;;;;;;;;;2.00;2.00;;;;;21.33;42.54;101444.81;112235;1252;20861;-30
2024/01/07 07:10:40;;;;;;;;;2.00;2.00;;;;;21.38;42.16;101444.20;112234;1246;19628;-31
2024/01/07 07:13:08;;;;;;;;;4.00;2.00;;;;;21.35;42.45;101445.38;112178;1247;21324;-30
2024/01/07 07:15:35;;;;;;;;;2.00;2.00;;;;;21.33;42.46;101448.20;112216;1244;20759;-31
2024/01/07 07:18:03;;;;;;;;;2.00;2.00;;;;;21.33;42.50;101447.11;112203;1260;18223;-31
2024/01/07 07:20:30;;;;;;;;;2.00;2.00;;;;;21.32;42.47;101443.07;112232;1244;20407;-31
2024/01/07 07:22:57;;;;;;;;;4.00;4.00;;;;;21.30;42.73;101446.25;112221;1244;22052;-31
2024/01/07 07:25:25;;;;;;;;;2.00;2.00;;;;;21.28;42.78;101444.11;112143;1260;18689;-30
2024/01/07 07:27:52;;;;;;;;;4.00;2.00;;;;;21.27;42.82;101445.03;112175;1244;18873;-31
2024/01/07 07:30:19;;;;;;;;;2.50;2.50;;;;;21.26;43.00;101446.54;112217;1244;19341;-31
2024/01/07 07:32:47;;;;;;;;;4.00;2.00;;;;;21.24;43.09;101443.73;112196;1247;19657;-31
2024/01/07 07:35:14;;;;;;;;;1.00;1.00;;;;;21.34;42.59;101448.27;112177;1260;20085;-31
2024/01/07 07:37:41;;;;;;;;;3.00;3.00;;;;;21.38;42.62;101451.67;112207;1260;19338;-31
2024/01/07 07:40:08;;;;;;;;;2.00;2.00;;;;;21.43;42.39;101458.32;112279;1252;18573;-30
2024/01/07 07:42:36;;;;;;;;;4.00;4.00;;;;;21.45;42.41;101464.23;112257;1244;20050;-30
2024/01/07 07:45:03;;;;;;;;;2.00;2.00;;;;;21.48;42.56;101468.41;112327;1244;20790;-31
2024/01/07 07:47:30;;;;;;;;;2.00;2.00;;;;;21.54;42.79;101469.39;112124;1260;19827;-30
2024/01/07 07:49:58;;;;;;;;;2.00;2.00;;;;;21.55;43.27;101468.70;112319;1260;19982;-30
2024/01/07 07:52:25;;;;;;;;;2.00;2.00;;;;;21.57;43.26;101471.60;112175;1260;19367;-30
2024/01/07 07:54:53;;;;;;;;;6.67;5.00;;;;;21.50;43.97;101473.34;112346;1244;20841;-30
2024/01/07 07:57:21;;;;;;;;;32.50;31.00;;;;;21.56;44.24;101475.02;112196;1260;19951;-30
2024/01/07 07:59:48;;;;;;;;;32.00;28.00;;;;;21.71;44.39;101474.90;112298;1244;20931;-31
2024/01/07 08:02:16;;;;;;;;;28.00;28.00;;;;;21.68;44.75;101473.52;112137;1254;21236;-30
2024/01/07 08:04:43;;;;;;;;;32.00;30.50;;;;;21.63;45.28;101470.24;112281;1260;20101;-30
2024/01/07 08:07:11;;;;;;;;;26.00;25.00;;;;;21.60;45.54;101466.07;112129;1260;19347;-30
2024/01/07 08:09:38;;;;;;;;;35.33;33.67;;;;;21.65;45.57;101475.38;112300;1260;18587;-31
2024/01/07 08:12:05;;;;;;;;;31.00;28.00;;;;;21.78;45.72;101473.70;112136;1245;20057;-30
2024/01/07 08:14:32;;;;;;;;;33.00;29.00;;;;;21.72;46.04;101479.48;112373;1248;20613;-31
2024/01/07 08:17:00;;;;;;;;;38.00;34.00;;;;;21.70;46.88;101480.73;112174;1260;19960;-30
2024/01/07 08:19:27;;;;;;;;;31.50;31.00;;;;;21.72;46.79;101478.34;112216;1246;20219;-30
2024/01/07 08:21:56;;;;;;;;;37.50;33.50;;;;;21.79;47.29;101484.56;112229;1244;22170;-30
2024/01/07 08:24:23;;;;;;;;;25.50;23.50;;;;;21.78;47.36;101486.91;112350;1246;20027;-31
2024/01/07 08:26:51;;;;;;;;;36.00;33.50;;;;;21.79;47.34;101491.98;112209;1245;18781;-30
2024/01/07 08:29:18;;;;;;;;;35.00;32.00;;;;;21.79;47.76;101494.44;112215;1247;20779;-30
2024/01/07 08:31:46;;;;;;;;;29.00;27.00;;;;;21.85;47.71;101492.15;112162;1260;19884;-30
2024/01/07 08:34:14;;;;;;;;;29.00;27.50;;;;;21.92;47.52;101489.42;112265;1260;18808;-30
2024/01/07 08:36:42;;;;;;;;;28.00;26.00;;;;;21.94;47.35;101500.36;112171;1260;19775;-30
2024/01/07 08:39:10;;;;;;;;;28.00;23.00;;;;;21.92;47.47;101503.12;112191;1260;19959;-30
2024/01/07 08:41:37;;;;;;;;;31.00;26.00;;;;;21.88;47.39;101503.63;112330;1244;20061;-30
2024/01/07 08:44:05;;;;;;;;;52.00;45.50;;;;;21.92;47.11;101505.26;112170;1248;20841;-31
2024/01/07 08:46:32;;;;;;;;;39.00;36.50;;;;;22.00;46.41;101505.38;112197;1260;18604;-30
2024/01/07 08:48:59;;;;;;;;;30.50;29.00;;;;;21.98;46.71;101502.35;112211;1260;18889;-31
2024/01/07 08:51:27;;;;;;;;;26.00;25.50;;;;;21.89;46.24;101497.15;112150;1249;20845;-30
2024/01/07 08:53:55;;;;;;;;;20.00;20.00;;;;;21.87;46.46;101498.44;112246;1245;21145;-30
2024/01/07 08:56:22;;;;;;;;;21.50;18.50;;;;;21.87;46.20;101504.71;112168;1247;20109;-30
2024/01/07 08:58:49;;;;;;;;;22.50;19.50;;;;;21.84;46.10;101508.66;112243;1260;20493;-30
2024/01/07 09:01:17;;;;;;;;;20.00;19.50;;;;;21.82;45.90;101508.59;112176;1247;19989;-30
2024/01/07 09:03:44;;;;;;;;;16.00;14.00;;;;;21.77;46.31;101510.79;112318;1260;18784;-30
2024/01/07 09:06:11;;;;;;;;;19.00;16.50;;;;;21.77;46.29;101515.20;112176;1244;20817;-30
2024/01/07 09:08:38;;;;;;;;;17.67;14.00;;;;;21.75;46.34;101514.47;112363;1246;18591;-30
2024/01/07 09:11:06;;;;;;;;;13.00;13.00;;;;;21.73;46.40;101515.44;112154;1260;20026;-30
2024/01/07 09:13:34;;;;;;;;;16.00;14.00;;;;;21.69;46.29;101519.00;112310;1260;19783;-30
2024/01/07 09:16:01;;;;;;;;;13.67;13.00;;;;;21.80;46.17;101518.61;112159;1244;20077;-30
2024/01/07 09:18:29;;;;;;;;;15.33;13.00;;;;;21.78;46.11;101523.77;112384;1244;20105;-30
2024/01/07 09:20:56;;;;;;;;;10.00;10.00;;;;;21.83;46.02;101532.49;112204;1245;20891;-30
2024/01/07 09:23:23;;;;;;;;;11.00;10.00;;;;;21.82;45.86;101535.05;112356;1244;19964;-30
2024/01/07 09:25:51;;;;;;;;;13.00;11.00;;;;;21.75;46.02;101543.20;112202;1244;20863;-30
2024/01/07 09:28:18;;;;;;;;;10.50;10.00;;;;;21.74;46.28;101541.73;112394;1254;19208;-30
2024/01/07 09:30:46;;;;;;;;;14.00;13.00;;;;;21.77;45.80;101541.05;112217;1245;19963;-31
2024/01/07 09:33:14;;;;;;;;;9.00;8.00;;;;;21.80;45.82;101540.64;112434;1260;18928;-31
2024/01/07 09:35:43;;;;;;;;;8.00;8.00;;;;;21.82;45.58;101538.10;112143;1260;20831;-29
2024/01/07 09:38:10;;;;;;;;;9.00;8.00;;;;;21.82;46.03;101538.27;112241;1244;19680;-31
2024/01/07 09:40:38;;;;;;;;;8.00;8.00;;;;;21.85;45.89;101534.48;112359;1260;20237;-30
2024/01/07 09:43:05;;;;;;;;;11.00;9.00;;;;;21.83;45.58;101531.78;112259;1260;20714;-31
2024/01/07 09:45:33;;;;;;;;;11.00;10.00;;;;;21.82;45.61;101534.45;112153;1254;19657;-30
2024/01/07 09:48:00;;;;;;;;;8.00;8.00;;;;;21.77;45.80;101535.00;112237;1260;18701;-30
2024/01/07 09:50:27;;;;;;;;;9.00;9.00;;;;;21.64;46.31;101535.96;112148;1260;19323;-30
2024/01/07 09:52:55;;;;;;;;;8.00;8.00;;;;;21.61;46.30;101533.69;112278;1260;18668;-30
2024/01/07 09:55:22;;;;;;;;;8.00;8.00;;;;;21.66;46.01;101533.58;112162;1260;19679;-30
2024/01/07 09:57:50;;;;;;;;;8.00;7.00;;;;;21.67;46.05;101532.61;112150;1247;21986;-28
2024/01/07 10:00:17;;;;;;;;;7.00;5.00;;;;;21.69;46.44;101532.13;112166;1244;19688;-29
2024/01/07 10:02:44;;;;;;;;;7.00;7.00;;;;;21.68;46.61;101534.97;112213;1260;18755;-29
2024/01/07 10:05:12;;;;;;;;;8.00;7.00;;;;;21.75;47.00;101534.65;112157;1246;20959;-30
2024/01/07 10:07:39;;;;;;;;;8.00;8.00;;;;;21.70;46.74;101536.07;112108;1260;18109;-29
2024/01/07 10:10:06;;;;;;;;;11.00;8.00;;;;;21.79;46.78;101531.64;112105;1244;20053;-34
2024/01/07 10:12:35;;;;;;;;;91.00;66.00;;;;;21.89;46.57;101529.83;112098;1260;19412;-35
2024/01/07 10:15:02;;;;;;;;;126.33;99.00;;;;;21.99;46.01;101529.91;112100;1260;18639;-35
2024/01/07 10:17:29;;;;;;;;;169.00;126.00;;;;;22.08;45.84;101531.88;112087;1260;19293;-38
2024/01/07 10:19:57;;;;;;;;;119.00;90.00;;;;;22.06;45.36;101530.70;112080;1247;20769;-35
2024/01/07 10:22:25;;;;;;;;;165.25;126.50;;;;;22.06;45.02;101525.91;112096;1260;18935;-35
2024/01/07 10:24:52;;;;;;;;;180.33;128.33;;;;;22.04;45.27;101527.64;112102;1246;20235;-35
2024/01/07 10:27:19;;;;;;;;;156.00;115.00;;;;;22.01;45.95;101523.19;112094;1253;20665;-38
2024/01/07 10:29:49;;;;;;;;;130.50;99.50;;;;;21.94;46.29;101526.22;112069;1254;18987;-34
2024/01/07 10:32:16;;;;;;;;;117.50;92.50;;;;;21.88;46.36;101520.32;112068;1244;20214;-36
2024/01/07 10:34:44;;;;;;;;;107.00;76.50;;;;;21.93;46.46;101520.05;112101;1244;20728;-34
2024/01/07 10:37:12;;;;;;;;;109.00;75.00;;;;;22.10;45.94;101518.30;112088;1260;18916;-34
2024/01/07 10:39:39;;;;;;;;;101.00;73.67;;;;;22.08;46.84;101519.39;112101;1252;20080;-33
2024/01/07 10:42:06;;;;;;;;;90.50;68.50;;;;;22.00;47.21;101514.65;112112;1245;20673;-34
2024/01/07 10:44:35;;;;;;;;;93.00;66.00;;;;;22.02;47.44;101507.52;112114;1244;20263;-35
2024/01/07 10:47:03;;;;;;;;;83.00;61.00;;;;;22.05;47.52;101503.20;112191;1244;20101;-35
2024/01/07 10:49:30;;;;;;;;;79.00;59.00;;;;;22.01;47.82;101509.42;112251;1246;20902;-35
2024/01/07 10:51:58;;;;;;;;;78.50;60.00;;;;;22.01;47.75;101512.48;112225;1257;20038;-35
2024/01/07 10:54:25;;;;;;;;;69.00;51.00;;;;;22.03;47.62;101519.50;112157;1253;20509;-33
2024/01/07 10:56:52;;;;;;;;;72.50;50.50;;;;;22.15;47.33;101514.91;112186;1256;20692;-34
2024/01/07 10:59:20;;;;;;;;;66.33;48.00;;;;;22.09;47.45;101515.19;112227;1253;20248;-35
2024/01/07 11:01:47;;;;;;;;;56.33;46.33;;;;;22.15;46.61;101511.20;112165;1244;21547;-35
2024/01/07 11:04:15;;;;;;;;;57.00;44.00;;;;;22.13;46.52;101510.19;112285;1244;19601;-35
2024/01/07 11:06:42;;;;;;;;;59.00;44.00;;;;;22.12;46.90;101514.72;112175;1246;19998;-35
2024/01/07 11:09:10;;;;;;;;;56.00;44.00;;;;;22.10;46.86;101514.92;112303;1249;20149;-34
2024/01/07 11:11:37;;;;;;;;;42.00;39.00;;;;;22.13;47.07;101512.39;112117;1260;19352;-35